sensor_id;sensor_type;location;lat;lon;timestamp;pressure;altitude;pressure_sealevel;temperature;humidity
6413;BME280;3239;48.714;9.472;2023-02-20T00:01:23;99497.53;;;8.01;100.00
6413;BME280;3239;48.714;9.472;2023-02-20T00:03:48;99499.78;;;8.02;100.00
6413;BME280;3239;48.714;9.472;2023-02-20T00:06:14;99499.03;;;8.02;100.00
6413;BME280;3239;48.714;9.472;2023-02-20T00:08:40;99505.44;;;7.99;100.00
6413;BME280;3239;48.714;9.472;2023-02-20T00:11:06;99499.53;;;8.00;100.00
6413;BME280;3239;48.714;9.472;2023-02-20T00:13:32;99509.69;;;8.00;100.00
6413;BME280;3239;48.714;9.472;2023-02-20T00:15:58;99497.53;;;8.01;100.00
6413;BME280;3239;48.714;9.472;2023-02-20T00:18:23;99502.53;;;8.02;100.00
6413;BME280;3239;48.714;9.472;2023-02-20T00:20:49;99495.09;;;8.03;100.00
6413;BME280;3239;48.714;9.472;2023-02-20T00:23:15;99485.69;;;8.04;100.00
6413;BME280;3239;48.714;9.472;2023-02-20T00:25:41;99491.69;;;8.08;100.00
6413;BME280;3239;48.714;9.472;2023-02-20T00:28:07;99489.22;;;8.10;100.00
6413;BME280;3239;48.714;9.472;2023-02-20T00:30:32;99478.78;;;8.08;100.00
6413;BME280;3239;48.714;9.472;2023-02-20T00:32:58;99477.84;;;8.11;100.00
6413;BME280;3239;48.714;9.472;2023-02-20T00:35:25;99477.28;;;8.07;100.00
6413;BME280;3239;48.714;9.472;2023-02-20T00:37:53;99474.56;;;8.07;100.00
6413;BME280;3239;48.714;9.472;2023-02-20T00:40:21;99480.78;;;8.08;100.00
6413;BME280;3239;48.714;9.472;2023-02-20T00:42:48;99478.31;;;8.10;100.00
6413;BME280;3239;48.714;9.472;2023-02-20T00:45:16;99483.22;;;8.06;100.00
6413;BME280;3239;48.714;9.472;2023-02-20T00:47:42;99492.91;;;8.07;100.00
6413;BME280;3239;48.714;9.472;2023-02-20T00:50:11;99496.19;;;8.11;100.00
6413;BME280;3239;48.714;9.472;2023-02-20T00:52:38;99497.16;;;8.08;100.00
6413;BME280;3239;48.714;9.472;2023-02-20T00:55:04;99501.09;;;8.07;100.00
6413;BME280;3239;48.714;9.472;2023-02-20T00:57:30;99504.78;;;8.04;100.00
6413;BME280;3239;48.714;9.472;2023-02-20T00:59:56;99499.78;;;8.02;100.00
6413;BME280;3239;48.714;9.472;2023-02-20T01:02:22;99504.03;;;8.03;100.00
6413;BME280;3239;48.714;9.472;2023-02-20T01:04:48;99500.25;;;8.01;100.00
6413;BME280;3239;48.714;9.472;2023-02-20T01:07:14;99495.09;;;8.03;100.00
6413;BME280;3239;48.714;9.472;2023-02-20T01:09:40;99495.38;;;8.05;100.00
6413;BME280;3239;48.714;9.472;2023-02-20T01:12:06;99493.56;;;8.02;100.00
6413;BME280;3239;48.714;9.472;2023-02-20T01:14:32;99491.59;;;8.02;100.00
6413;BME280;3239;48.714;9.472;2023-02-20T01:16:58;99494.06;;;8.00;100.00
6413;BME280;3239;48.714;9.472;2023-02-20T01:19:24;99491.59;;;8.02;100.00
6413;BME280;3239;48.714;9.472;2023-02-20T01:21:50;99486.34;;;7.99;100.00
6413;BME280;3239;48.714;9.472;2023-02-20T01:24:17;99477.41;;;7.98;100.00
6413;BME280;3239;48.714;9.472;2023-02-20T01:26:45;99467.16;;;7.93;100.00
6413;BME280;3239;48.714;9.472;2023-02-20T01:29:12;99471.31;;;7.89;100.00
6413;BME280;3239;48.714;9.472;2023-02-20T01:31:38;99463.13;;;7.89;100.00
6413;BME280;3239;48.714;9.472;2023-02-20T01:34:04;99468.22;;;7.81;100.00
6413;BME280;3239;48.714;9.472;2023-02-20T01:36:30;99463.44;;;7.76;100.00
6413;BME280;3239;48.714;9.472;2023-02-20T01:38:56;99466.25;;;7.82;100.00
6413;BME280;3239;48.714;9.472;2023-02-20T01:41:24;99472.38;;;7.77;100.00
6413;BME280;3239;48.714;9.472;2023-02-20T01:43:50;99461.66;;;7.73;100.00
6413;BME280;3239;48.714;9.472;2023-02-20T01:49:09;99471.25;;;7.69;100.00
6413;BME280;3239;48.714;9.472;2023-02-20T01:51:41;99465.34;;;7.70;100.00
6413;BME280;3239;48.714;9.472;2023-02-20T01:54:12;99467.22;;;7.64;100.00
6413;BME280;3239;48.714;9.472;2023-02-20T01:56:40;99473.91;;;7.63;100.00
6413;BME280;3239;48.714;9.472;2023-02-20T01:59:07;99471.44;;;7.65;100.00
6413;BME280;3239;48.714;9.472;2023-02-20T02:01:34;99465.16;;;7.59;100.00
6413;BME280;3239;48.714;9.472;2023-02-20T02:04:04;99465.72;;;7.63;100.00
6413;BME280;3239;48.714;9.472;2023-02-20T02:06:33;99465.22;;;7.65;100.00
6413;BME280;3239;48.714;9.472;2023-02-20T02:11:48;99469.66;;;7.62;100.00
6413;BME280;3239;48.714;9.472;2023-02-20T02:14:15;99463.06;;;7.69;100.00
6413;BME280;3239;48.714;9.472;2023-02-20T02:19:50;99455.34;;;7.67;100.00
6413;BME280;3239;48.714;9.472;2023-02-20T02:27:58;99441.19;;;7.63;100.00
6413;BME280;3239;48.714;9.472;2023-02-20T02:36:25;99433.25;;;7.65;100.00
6413;BME280;3239;48.714;9.472;2023-02-20T02:42:07;99456.78;;;7.63;100.00
6413;BME280;3239;48.714;9.472;2023-02-20T02:45:19;99453.13;;;7.66;100.00
6413;BME280;3239;48.714;9.472;2023-02-20T02:48:19;99455.09;;;7.65;100.00
6413;BME280;3239;48.714;9.472;2023-02-20T02:50:48;99455.34;;;7.67;100.00
6413;BME280;3239;48.714;9.472;2023-02-20T02:53:17;99448.97;;;7.70;100.00
6413;BME280;3239;48.714;9.472;2023-02-20T02:55:42;99458.19;;;7.73;100.00
6413;BME280;3239;48.714;9.472;2023-02-20T02:58:09;99452.25;;;7.74;100.00
6413;BME280;3239;48.714;9.472;2023-02-20T03:00:54;99445.31;;;7.73;100.00
6413;BME280;3239;48.714;9.472;2023-02-20T03:03:33;99442.56;;;7.73;100.00
6413;BME280;3239;48.714;9.472;2023-02-20T03:06:27;99438.63;;;7.74;100.00
6413;BME280;3239;48.714;9.472;2023-02-20T03:09:13;99438.63;;;7.74;100.00
6413;BME280;3239;48.714;9.472;2023-02-20T03:11:42;99443.50;;;7.70;100.00
6413;BME280;3239;48.714;9.472;2023-02-20T03:14:14;99440.97;;;7.67;100.00
6413;BME280;3239;48.714;9.472;2023-02-20T03:17:34;99428.28;;;7.64;100.00
6413;BME280;3239;48.714;9.472;2023-02-20T03:20:07;99437.69;;;7.63;100.00
6413;BME280;3239;48.714;9.472;2023-02-20T03:22:47;99427.91;;;7.56;100.00
6413;BME280;3239;48.714;9.472;2023-02-20T03:25:58;99416.38;;;7.47;100.00
6413;BME280;3239;48.714;9.472;2023-02-20T03:28:36;99430.66;;;7.42;100.00
6413;BME280;3239;48.714;9.472;2023-02-20T03:31:18;99426.34;;;7.35;100.00
6413;BME280;3239;48.714;9.472;2023-02-20T03:34:05;99428.22;;;7.29;100.00
6413;BME280;3239;48.714;9.472;2023-02-20T03:37:15;99434.63;;;7.26;100.00
6413;BME280;3239;48.714;9.472;2023-02-20T03:40:06;99438.41;;;7.29;100.00
6413;BME280;3239;48.714;9.472;2023-02-20T03:42:56;99449.78;;;7.27;100.00
6413;BME280;3239;48.714;9.472;2023-02-20T03:45:42;99460.94;;;7.29;100.00
6413;BME280;3239;48.714;9.472;2023-02-20T03:51:02;99463.31;;;7.36;100.00
6413;BME280;3239;48.714;9.472;2023-02-20T03:53:28;99457.09;;;7.36;100.00
6413;BME280;3239;48.714;9.472;2023-02-20T03:55:57;99453.91;;;7.37;100.00
6413;BME280;3239;48.714;9.472;2023-02-20T03:58:24;99450.88;;;7.35;100.00
6413;BME280;3239;48.714;9.472;2023-02-20T04:00:54;99449.69;;;7.36;100.00
6413;BME280;3239;48.714;9.472;2023-02-20T04:03:27;99453.13;;;7.37;100.00
6413;BME280;3239;48.714;9.472;2023-02-20T04:05:56;99451.38;;;7.34;100.00
6413;BME280;3239;48.714;9.472;2023-02-20T04:08:32;99449.84;;;7.33;100.00
6413;BME280;3239;48.714;9.472;2023-02-20T04:11:08;99448.81;;;7.30;100.00
6413;BME280;3239;48.714;9.472;2023-02-20T04:13:37;99439.91;;;7.30;100.00
6413;BME280;3239;48.714;9.472;2023-02-20T04:16:04;99445.34;;;7.30;100.00
6413;BME280;3239;48.714;9.472;2023-02-20T04:18:31;99443.09;;;7.28;100.00
6413;BME280;3239;48.714;9.472;2023-02-20T04:20:59;99432.38;;;7.25;100.00
6413;BME280;3239;48.714;9.472;2023-02-20T04:23:27;99429.56;;;7.19;100.00
6413;BME280;3239;48.714;9.472;2023-02-20T04:26:18;99427.22;;;7.12;100.00
6413;BME280;3239;48.714;9.472;2023-02-20T04:28:45;99427.28;;;7.03;100.00
6413;BME280;3239;48.714;9.472;2023-02-20T04:31:14;99434.63;;;6.97;100.00
6413;BME280;3239;48.714;9.472;2023-02-20T04:33:42;99425.13;;;6.93;100.00
6413;BME280;3239;48.714;9.472;2023-02-20T04:36:08;99436.69;;;6.88;100.00
6413;BME280;3239;48.714;9.472;2023-02-20T04:38:34;99427.47;;;6.85;100.00
6413;BME280;3239;48.714;9.472;2023-02-20T04:41:00;99430.09;;;6.80;100.00
6413;BME280;3239;48.714;9.472;2023-02-20T04:43:25;99431.69;;;6.72;100.00
6413;BME280;3239;48.714;9.472;2023-02-20T04:45:51;99429.81;;;6.63;100.00
6413;BME280;3239;48.714;9.472;2023-02-20T04:48:17;99440.88;;;6.60;100.00
6413;BME280;3239;48.714;9.472;2023-02-20T04:50:42;99439.25;;;6.53;100.00
6413;BME280;3239;48.714;9.472;2023-02-20T04:53:08;99441.69;;;6.51;100.00
6413;BME280;3239;48.714;9.472;2023-02-20T04:55:34;99445.34;;;6.48;100.00
6413;BME280;3239;48.714;9.472;2023-02-20T04:58:00;99446.56;;;6.47;100.00
6413;BME280;3239;48.714;9.472;2023-02-20T05:00:26;99443.53;;;6.45;100.00
6413;BME280;3239;48.714;9.472;2023-02-20T05:02:52;99441.75;;;6.42;100.00
6413;BME280;3239;48.714;9.472;2023-02-20T05:05:27;99448.75;;;6.34;100.00
6413;BME280;3239;48.714;9.472;2023-02-20T05:08:02;99451.22;;;6.32;100.00
6413;BME280;3239;48.714;9.472;2023-02-20T05:10:31;99463.31;;;6.31;100.00
6413;BME280;3239;48.714;9.472;2023-02-20T05:12:58;99458.03;;;6.28;100.00
6413;BME280;3239;48.714;9.472;2023-02-20T05:15:26;99462.59;;;6.22;100.00
6413;BME280;3239;48.714;9.472;2023-02-20T05:17:52;99461.09;;;6.21;100.00
6413;BME280;3239;48.714;9.472;2023-02-20T05:20:18;99461.44;;;6.14;100.00
6413;BME280;3239;48.714;9.472;2023-02-20T05:22:45;99464.63;;;6.12;100.00
6413;BME280;3239;48.714;9.472;2023-02-20T05:25:11;99461.50;;;6.05;100.00
6413;BME280;3239;48.714;9.472;2023-02-20T05:27:38;99471.47;;;6.08;100.00
6413;BME280;3239;48.714;9.472;2023-02-20T05:30:05;99467.13;;;6.01;100.00
6413;BME280;3239;48.714;9.472;2023-02-20T05:32:31;99469.06;;;6.01;100.00
6413;BME280;3239;48.714;9.472;2023-02-20T05:34:57;99476.66;;;5.97;100.00
6413;BME280;3239;48.714;9.472;2023-02-20T05:37:24;99471.69;;;5.95;100.00
6413;BME280;3239;48.714;9.472;2023-02-20T05:39:51;99478.03;;;5.92;100.00
6413;BME280;3239;48.714;9.472;2023-02-20T05:42:17;99475.75;;;5.91;100.00
6413;BME280;3239;48.714;9.472;2023-02-20T05:44:43;99486.09;;;5.87;100.00
6413;BME280;3239;48.714;9.472;2023-02-20T05:47:09;99476.28;;;5.80;100.00
6413;BME280;3239;48.714;9.472;2023-02-20T05:49:36;99482.00;;;5.82;100.00
6413;BME280;3239;48.714;9.472;2023-02-20T05:52:04;99479.00;;;5.80;100.00
6413;BME280;3239;48.714;9.472;2023-02-20T05:54:37;99488.66;;;5.72;100.00
6413;BME280;3239;48.714;9.472;2023-02-20T05:57:03;99488.81;;;5.69;100.00
6413;BME280;3239;48.714;9.472;2023-02-20T05:59:29;99485.66;;;5.70;100.00
6413;BME280;3239;48.714;9.472;2023-02-20T06:01:57;99483.72;;;5.62;100.00
6413;BME280;3239;48.714;9.472;2023-02-20T06:04:23;99493.84;;;5.61;100.00
6413;BME280;3239;48.714;9.472;2023-02-20T06:06:49;99491.13;;;5.61;100.00
6413;BME280;3239;48.714;9.472;2023-02-20T06:09:15;99489.34;;;5.58;100.00
6413;BME280;3239;48.714;9.472;2023-02-20T06:11:52;99476.53;;;5.50;100.00
6413;BME280;3239;48.714;9.472;2023-02-20T06:14:20;99489.06;;;5.47;100.00
6413;BME280;3239;48.714;9.472;2023-02-20T06:16:46;99498.28;;;5.50;100.00
6413;BME280;3239;48.714;9.472;2023-02-20T06:19:21;99499.59;;;5.54;100.00
6413;BME280;3239;48.714;9.472;2023-02-20T06:21:49;99505.03;;;5.54;100.00
6413;BME280;3239;48.714;9.472;2023-02-20T06:24:16;99511.38;;;5.60;100.00
6413;BME280;3239;48.714;9.472;2023-02-20T06:26:42;99516.94;;;5.66;100.00
6413;BME280;3239;48.714;9.472;2023-02-20T06:29:08;99517.41;;;5.64;100.00
6413;BME280;3239;48.714;9.472;2023-02-20T06:31:34;99514.81;;;5.70;100.00
6413;BME280;3239;48.714;9.472;2023-02-20T06:34:00;99515.84;;;5.72;100.00
6413;BME280;3239;48.714;9.472;2023-02-20T06:36:30;99514.81;;;5.70;100.00
6413;BME280;3239;48.714;9.472;2023-02-20T06:38:57;99501.22;;;5.70;100.00
6413;BME280;3239;48.714;9.472;2023-02-20T06:41:24;99493.97;;;5.67;100.00
6413;BME280;3239;48.714;9.472;2023-02-20T06:43:49;99504.56;;;5.65;100.00
6413;BME280;3239;48.714;9.472;2023-02-20T06:46:16;99507.75;;;5.63;100.00
6413;BME280;3239;48.714;9.472;2023-02-20T06:48:54;99494.69;;;5.35;100.00
6413;BME280;3239;48.714;9.472;2023-02-20T06:51:32;99491.69;;;5.24;100.00
6413;BME280;3239;48.714;9.472;2023-02-20T06:54:00;99504.94;;;5.31;100.00
6413;BME280;3239;48.714;9.472;2023-02-20T06:56:32;99506.28;;;5.44;100.00
6413;BME280;3239;48.714;9.472;2023-02-20T06:58:59;99517.13;;;5.62;100.00
6413;BME280;3239;48.714;9.472;2023-02-20T07:01:28;99516.72;;;5.87;100.00
6413;BME280;3239;48.714;9.472;2023-02-20T07:03:56;99522.16;;;5.96;100.00
6413;BME280;3239;48.714;9.472;2023-02-20T07:06:24;99519.97;;;6.09;100.00
6413;BME280;3239;48.714;9.472;2023-02-20T07:08:50;99512.31;;;6.31;100.00
6413;BME280;3239;48.714;9.472;2023-02-20T07:11:19;99522.38;;;6.63;100.00
6413;BME280;3239;48.714;9.472;2023-02-20T07:13:45;99512.00;;;6.91;100.00
6413;BME280;3239;48.714;9.472;2023-02-20T07:16:12;99499.75;;;7.10;100.00
6413;BME280;3239;48.714;9.472;2023-02-20T07:18:37;99493.56;;;7.38;100.00
6413;BME280;3239;48.714;9.472;2023-02-20T07:21:04;99471.84;;;7.00;100.00
6413;BME280;3239;48.714;9.472;2023-02-20T07:23:30;99456.81;;;7.34;100.00
6413;BME280;3239;48.714;9.472;2023-02-20T07:25:55;99446.97;;;7.85;100.00
6413;BME280;3239;48.714;9.472;2023-02-20T07:28:21;99427.38;;;7.52;100.00
6413;BME280;3239;48.714;9.472;2023-02-20T07:30:47;99425.81;;;8.35;100.00
6413;BME280;3239;48.714;9.472;2023-02-20T07:33:17;99423.63;;;7.84;100.00
6413;BME280;3239;48.714;9.472;2023-02-20T07:35:44;99417.13;;;8.56;100.00
6413;BME280;3239;48.714;9.472;2023-02-20T07:38:11;99409.97;;;8.84;100.00
6413;BME280;3239;48.714;9.472;2023-02-20T07:40:37;99393.38;;;8.88;100.00
6413;BME280;3239;48.714;9.472;2023-02-20T07:43:02;99384.81;;;9.37;100.00
6413;BME280;3239;48.714;9.472;2023-02-20T07:45:28;99371.72;;;9.88;100.00
6413;BME280;3239;48.714;9.472;2023-02-20T07:47:54;99362.25;;;9.84;100.00
6413;BME280;3239;48.714;9.472;2023-02-20T07:50:20;99350.38;;;10.03;100.00
6413;BME280;3239;48.714;9.472;2023-02-20T07:52:46;99339.00;;;9.68;100.00
6413;BME280;3239;48.714;9.472;2023-02-20T07:55:14;99336.56;;;10.23;100.00
6413;BME280;3239;48.714;9.472;2023-02-20T07:57:41;99320.22;;;10.84;100.00
6413;BME280;3239;48.714;9.472;2023-02-20T08:00:08;99304.28;;;11.10;100.00
6413;BME280;3239;48.714;9.472;2023-02-20T08:02:35;99294.28;;;11.18;100.00
6413;BME280;3239;48.714;9.472;2023-02-20T08:05:01;99304.25;;;11.32;100.00
6413;BME280;3239;48.714;9.472;2023-02-20T08:07:28;99302.50;;;11.29;100.00
6413;BME280;3239;48.714;9.472;2023-02-20T08:09:54;99294.97;;;11.51;100.00
6413;BME280;3239;48.714;9.472;2023-02-20T08:12:19;99285.47;;;11.58;100.00
6413;BME280;3239;48.714;9.472;2023-02-20T08:14:45;99280.09;;;11.98;100.00
6413;BME280;3239;48.714;9.472;2023-02-20T08:17:13;99269.75;;;11.64;100.00
6413;BME280;3239;48.714;9.472;2023-02-20T08:19:39;99271.25;;;12.22;100.00
6413;BME280;3239;48.714;9.472;2023-02-20T08:22:05;99268.84;;;12.42;100.00
6413;BME280;3239;48.714;9.472;2023-02-20T08:24:32;99263.22;;;12.94;100.00
6413;BME280;3239;48.714;9.472;2023-02-20T08:26:58;99246.44;;;13.27;100.00
6413;BME280;3239;48.714;9.472;2023-02-20T08:29:23;99255.34;;;13.09;100.00
6413;BME280;3239;48.714;9.472;2023-02-20T08:31:49;99260.31;;;13.16;100.00
6413;BME280;3239;48.714;9.472;2023-02-20T08:34:15;99245.66;;;13.26;100.00
6413;BME280;3239;48.714;9.472;2023-02-20T08:36:41;99244.72;;;12.65;100.00
6413;BME280;3239;48.714;9.472;2023-02-20T08:39:06;99246.81;;;11.50;100.00
6413;BME280;3239;48.714;9.472;2023-02-20T08:41:32;99245.22;;;10.70;100.00
6413;BME280;3239;48.714;9.472;2023-02-20T08:43:58;99242.97;;;10.80;100.00
6413;BME280;3239;48.714;9.472;2023-02-20T08:46:23;99249.91;;;11.19;100.00
6413;BME280;3239;48.714;9.472;2023-02-20T08:48:49;99242.69;;;11.11;100.00
6413;BME280;3239;48.714;9.472;2023-02-20T08:51:19;99243.94;;;11.10;100.00
6413;BME280;3239;48.714;9.472;2023-02-20T08:53:44;99241.09;;;11.48;100.00
6413;BME280;3239;48.714;9.472;2023-02-20T08:56:10;99233.16;;;11.34;100.00
6413;BME280;3239;48.714;9.472;2023-02-20T08:58:37;99228.59;;;12.50;100.00
6413;BME280;3239;48.714;9.472;2023-02-20T09:01:04;99225.06;;;11.69;100.00
6413;BME280;3239;48.714;9.472;2023-02-20T09:03:30;99229.31;;;11.70;100.00
6413;BME280;3239;48.714;9.472;2023-02-20T09:05:55;99233.34;;;12.09;100.00
6413;BME280;3239;48.714;9.472;2023-02-20T09:08:21;99225.63;;;11.45;100.00
6413;BME280;3239;48.714;9.472;2023-02-20T09:10:47;99221.75;;;11.02;100.00
6413;BME280;3239;48.714;9.472;2023-02-20T09:13:13;99229.59;;;11.55;100.00
6413;BME280;3239;48.714;9.472;2023-02-20T09:15:38;99227.88;;;11.47;100.00
6413;BME280;3239;48.714;9.472;2023-02-20T09:18:07;99229.72;;;12.31;100.00
6413;BME280;3239;48.714;9.472;2023-02-20T09:20:35;99220.00;;;13.18;100.00
6413;BME280;3239;48.714;9.472;2023-02-20T09:23:02;99203.88;;;13.28;100.00
6413;BME280;3239;48.714;9.472;2023-02-20T09:25:28;99205.22;;;13.40;100.00
6413;BME280;3239;48.714;9.472;2023-02-20T09:27:54;99212.94;;;12.69;100.00
6413;BME280;3239;48.714;9.472;2023-02-20T09:30:20;99199.31;;;12.18;100.00
6413;BME280;3239;48.714;9.472;2023-02-20T09:32:47;99202.00;;;11.94;100.00
6413;BME280;3239;48.714;9.472;2023-02-20T09:35:35;99203.94;;;12.69;100.00
6413;BME280;3239;48.714;9.472;2023-02-20T09:38:01;99201.38;;;12.47;100.00
6413;BME280;3239;48.714;9.472;2023-02-20T09:40:30;99204.34;;;13.32;100.00
6413;BME280;3239;48.714;9.472;2023-02-20T09:46:12;99194.63;;;14.42;100.00
6413;BME280;3239;48.714;9.472;2023-02-20T09:49:13;99185.09;;;13.50;100.00
6413;BME280;3239;48.714;9.472;2023-02-20T09:51:50;99183.19;;;13.21;100.00
6413;BME280;3239;48.714;9.472;2023-02-20T09:54:40;99168.56;;;13.32;100.00
6413;BME280;3239;48.714;9.472;2023-02-20T09:57:15;99184.59;;;14.07;100.00
6413;BME280;3239;48.714;9.472;2023-02-20T10:00:19;99177.16;;;13.65;100.00
6413;BME280;3239;48.714;9.472;2023-02-20T10:03:03;99175.50;;;14.12;100.00
6413;BME280;3239;48.714;9.472;2023-02-20T10:05:31;99168.19;;;15.30;100.00
6413;BME280;3239;48.714;9.472;2023-02-20T10:07:57;99165.84;;;13.69;100.00
6413;BME280;3239;48.714;9.472;2023-02-20T10:10:30;99163.56;;;14.04;100.00
6413;BME280;3239;48.714;9.472;2023-02-20T10:18:49;99151.44;;;15.15;100.00
6413;BME280;3239;48.714;9.472;2023-02-20T10:24:35;99142.69;;;14.59;93.37
6413;BME280;3239;48.714;9.472;2023-02-20T10:27:41;99148.47;;;15.52;92.13
6413;BME280;3239;48.714;9.472;2023-02-20T10:30:16;99148.44;;;14.11;96.31
6413;BME280;3239;48.714;9.472;2023-02-20T10:32:53;99149.22;;;13.93;100.00
6413;BME280;3239;48.714;9.472;2023-02-20T10:35:35;99142.31;;;13.86;100.00
6413;BME280;3239;48.714;9.472;2023-02-20T10:38:09;99142.59;;;15.55;95.90
6413;BME280;3239;48.714;9.472;2023-02-20T10:43:54;99128.88;;;17.85;71.46
6413;BME280;3239;48.714;9.472;2023-02-20T10:46:45;99150.31;;;17.41;63.50
6413;BME280;3239;48.714;9.472;2023-02-20T10:49:23;99135.06;;;15.04;70.74
6413;BME280;3239;48.714;9.472;2023-02-20T10:51:58;99140.31;;;14.37;87.83
6413;BME280;3239;48.714;9.472;2023-02-20T10:54:42;99128.94;;;14.85;93.63
6413;BME280;3239;48.714;9.472;2023-02-20T10:57:26;99130.00;;;15.34;87.39
6413;BME280;3239;48.714;9.472;2023-02-20T11:00:19;99124.50;;;15.67;80.33
6413;BME280;3239;48.714;9.472;2023-02-20T11:02:55;99124.25;;;15.78;82.81
6413;BME280;3239;48.714;9.472;2023-02-20T11:05:25;99122.63;;;16.57;77.41
6413;BME280;3239;48.714;9.472;2023-02-20T11:07:53;99122.03;;;17.07;70.86
6413;BME280;3239;48.714;9.472;2023-02-20T11:10:19;99109.50;;;18.07;63.54
6413;BME280;3239;48.714;9.472;2023-02-20T11:12:49;99106.53;;;16.76;58.89
6413;BME280;3239;48.714;9.472;2023-02-20T11:15:24;99110.50;;;17.67;64.54
6413;BME280;3239;48.714;9.472;2023-02-20T11:17:55;99107.50;;;17.14;59.01
6413;BME280;3239;48.714;9.472;2023-02-20T11:23:01;99089.59;;;18.54;56.48
6413;BME280;3239;48.714;9.472;2023-02-20T11:25:35;99092.66;;;19.89;54.02
6413;BME280;3239;48.714;9.472;2023-02-20T11:28:22;99088.91;;;19.62;49.16
6413;BME280;3239;48.714;9.472;2023-02-20T11:31:02;99079.06;;;20.01;48.33
6413;BME280;3239;48.714;9.472;2023-02-20T11:33:31;99080.44;;;21.00;45.06
6413;BME280;3239;48.714;9.472;2023-02-20T11:36:15;99078.53;;;22.06;43.74
6413;BME280;3239;48.714;9.472;2023-02-20T11:38:42;99080.41;;;20.24;44.33
6413;BME280;3239;48.714;9.472;2023-02-20T11:41:31;99076.72;;;22.73;41.87
6413;BME280;3239;48.714;9.472;2023-02-20T11:46:44;99063.03;;;21.43;38.37
6413;BME280;3239;48.714;9.472;2023-02-20T11:49:26;99061.63;;;20.91;40.37
6413;BME280;3239;48.714;9.472;2023-02-20T11:52:16;99062.16;;;21.67;39.97
6413;BME280;3239;48.714;9.472;2023-02-20T11:54:42;99049.44;;;23.69;38.06
6413;BME280;3239;48.714;9.472;2023-02-20T11:57:26;99041.47;;;24.76;35.44
6413;BME280;3239;48.714;9.472;2023-02-20T12:00:15;99043.13;;;25.23;33.60
6413;BME280;3239;48.714;9.472;2023-02-20T12:05:45;99036.28;;;23.12;35.10
6413;BME280;3239;48.714;9.472;2023-02-20T12:08:33;99021.03;;;25.38;32.74
6413;BME280;3239;48.714;9.472;2023-02-20T12:11:08;99018.84;;;26.15;31.60
6413;BME280;3239;48.714;9.472;2023-02-20T12:13:42;99012.78;;;25.75;31.70
6413;BME280;3239;48.714;9.472;2023-02-20T12:22:21;98995.47;;;27.20;28.84
6413;BME280;3239;48.714;9.472;2023-02-20T12:25:26;98997.72;;;26.74;28.95
6413;BME280;3239;48.714;9.472;2023-02-20T12:31:11;98986.34;;;24.69;32.66
6413;BME280;3239;48.714;9.472;2023-02-20T12:42:41;98953.19;;;26.82;29.26
6413;BME280;3239;48.714;9.472;2023-02-20T12:45:41;98945.56;;;29.41;27.30
6413;BME280;3239;48.714;9.472;2023-02-20T12:51:20;98936.19;;;26.43;29.01
6413;BME280;3239;48.714;9.472;2023-02-20T13:02:32;98919.59;;;22.08;36.37
6413;BME280;3239;48.714;9.472;2023-02-20T13:05:01;98915.66;;;22.21;34.82
6413;BME280;3239;48.714;9.472;2023-02-20T13:07:37;98905.78;;;25.92;31.84
6413;BME280;3239;48.714;9.472;2023-02-20T13:12:51;98911.91;;;21.90;36.27
6413;BME280;3239;48.714;9.472;2023-02-20T13:18:00;98904.13;;;20.90;37.35
6413;BME280;3239;48.714;9.472;2023-02-20T13:21:07;98896.31;;;23.29;36.44
6413;BME280;3239;48.714;9.472;2023-02-20T13:23:36;98889.19;;;21.93;35.63
6413;BME280;3239;48.714;9.472;2023-02-20T13:28:51;98881.97;;;22.00;36.94
6413;BME280;3239;48.714;9.472;2023-02-20T13:39:35;98858.97;;;21.54;35.37
6413;BME280;3239;48.714;9.472;2023-02-20T13:44:48;98827.00;;;21.74;35.70
6413;BME280;3239;48.714;9.472;2023-02-20T13:47:35;98822.06;;;21.36;36.29
6413;BME280;3239;48.714;9.472;2023-02-20T13:50:28;98806.41;;;22.83;35.42
6413;BME280;3239;48.714;9.472;2023-02-20T13:52:55;98806.41;;;23.23;33.58
6413;BME280;3239;48.714;9.472;2023-02-20T13:55:24;98806.03;;;24.43;32.37
6413;BME280;3239;48.714;9.472;2023-02-20T13:58:10;98807.28;;;23.77;32.99
6413;BME280;3239;48.714;9.472;2023-02-20T14:00:53;98801.78;;;23.07;33.90
6413;BME280;3239;48.714;9.472;2023-02-20T14:06:14;98794.69;;;23.88;33.42
6413;BME280;3239;48.714;9.472;2023-02-20T14:08:46;98796.59;;;23.03;33.39
6413;BME280;3239;48.714;9.472;2023-02-20T14:11:35;98796.50;;;21.85;34.53
6413;BME280;3239;48.714;9.472;2023-02-20T14:14:10;98788.50;;;21.44;35.34
6413;BME280;3239;48.714;9.472;2023-02-20T14:16:45;98772.13;;;21.12;36.44
6413;BME280;3239;48.714;9.472;2023-02-20T14:19:21;98773.88;;;21.81;35.27
6413;BME280;3239;48.714;9.472;2023-02-20T14:21:48;98771.25;;;21.83;35.54
6413;BME280;3239;48.714;9.472;2023-02-20T14:24:24;98766.81;;;23.27;35.33
6413;BME280;3239;48.714;9.472;2023-02-20T14:26:52;98776.19;;;24.04;32.27
6413;BME280;3239;48.714;9.472;2023-02-20T14:29:33;98774.63;;;21.91;34.94
6413;BME280;3239;48.714;9.472;2023-02-20T14:32:02;98773.50;;;20.67;36.66
6413;BME280;3239;48.714;9.472;2023-02-20T14:34:52;98771.03;;;20.71;37.25
6413;BME280;3239;48.714;9.472;2023-02-20T14:37:38;98773.53;;;21.58;36.07
6413;BME280;3239;48.714;9.472;2023-02-20T14:40:28;98773.41;;;22.32;35.84
6413;BME280;3239;48.714;9.472;2023-02-20T14:43:02;98763.97;;;22.66;32.92
6413;BME280;3239;48.714;9.472;2023-02-20T14:45:28;98768.16;;;21.79;34.25
6413;BME280;3239;48.714;9.472;2023-02-20T14:47:59;98746.56;;;20.70;36.22
6413;BME280;3239;48.714;9.472;2023-02-20T14:50:26;98753.09;;;21.37;35.15
6413;BME280;3239;48.714;9.472;2023-02-20T14:53:14;98748.09;;;21.26;35.51
6413;BME280;3239;48.714;9.472;2023-02-20T14:55:40;98758.44;;;21.61;34.54
6413;BME280;3239;48.714;9.472;2023-02-20T14:58:16;98740.28;;;20.79;36.20
6413;BME280;3239;48.714;9.472;2023-02-20T15:00:43;98724.09;;;22.06;35.56
6413;BME280;3239;48.714;9.472;2023-02-20T15:03:21;98730.25;;;20.93;36.45
6413;BME280;3239;48.714;9.472;2023-02-20T15:05:48;98739.66;;;22.09;35.31
6413;BME280;3239;48.714;9.472;2023-02-20T15:10:55;98731.22;;;23.48;33.47
6413;BME280;3239;48.714;9.472;2023-02-20T15:13:27;98718.59;;;23.38;32.15
6413;BME280;3239;48.714;9.472;2023-02-20T15:16:21;98726.31;;;22.97;32.11
6413;BME280;3239;48.714;9.472;2023-02-20T15:18:48;98734.69;;;22.67;34.27
6413;BME280;3239;48.714;9.472;2023-02-20T15:21:36;98729.16;;;22.48;33.52
6413;BME280;3239;48.714;9.472;2023-02-20T15:26:50;98724.66;;;22.05;34.18
6413;BME280;3239;48.714;9.472;2023-02-20T15:29:26;98717.78;;;21.96;33.80
6413;BME280;3239;48.714;9.472;2023-02-20T15:31:56;98718.00;;;22.88;32.70